Time;durP1;ratioP1;P1;durP2;ratioP2;P2;SDS_P1;SDS_P2;PMS_P1;PMS_P2;Temp;Humidity;BMP_temperature;BMP_pressure;BME280_temperature;BME280_humidity;BME280_pressure;Samples;Min_cycle;Max_cycle;Signal;HPM_P1;HPM_P2
2022/03/19 00:01:26;;;;;;;;;;;;;;;18.10;44.46;104539.47;5126903;27;19908;-61
2022/03/19 00:03:51;;;;;;;;;;;;;;;18.10;44.47;104541.31;5126835;28;19908;-61
2022/03/19 00:06:17;;;;;;;;;;;;;;;18.09;44.60;104543.09;5126496;28;19919;-61
2022/03/19 00:08:42;;;;;;;;;;;;;;;18.08;44.54;104533.28;5126420;28;19911;-61
2022/03/19 00:11:08;;;;;;;;;;;;;;;18.07;44.36;104536.94;5126129;28;19966;-61
2022/03/19 00:13:33;;;;;;;;;;;;;;;18.08;44.46;104540.50;5125471;28;19943;-61
2022/03/19 00:15:58;;;;;;;;;;;;;;;18.08;44.39;104541.34;5126029;28;19908;-61
2022/03/19 00:18:24;;;;;;;;;;;;;;;18.07;44.26;104545.00;5126235;28;19908;-61
2022/03/19 00:20:49;;;;;;;;;;;;;;;18.07;44.42;104536.94;5126478;28;19908;-61
2022/03/19 00:23:15;;;;;;;;;;;;;;;18.07;44.23;104536.94;5126377;28;19927;-61
2022/03/19 00:25:40;;;;;;;;;;;;;;;18.06;44.21;104540.56;5125743;28;19911;-61
2022/03/19 00:28:05;;;;;;;;;;;;;;;18.07;44.13;104534.25;5126000;28;19942;-61
2022/03/19 00:30:31;;;;;;;;;;;;;;;18.06;44.15;104537.00;5126245;28;19915;-61
2022/03/19 00:32:56;;;;;;;;;;;;;;;18.04;44.34;104534.38;5125977;28;19964;-61
2022/03/19 00:35:21;;;;;;;;;;;;;;;18.04;44.27;104537.06;5126138;28;19912;-61
2022/03/19 00:37:47;;;;;;;;;;;;;;;18.04;44.21;104538.91;5126007;28;20052;-61
2022/03/19 00:40:13;;;;;;;;;;;;;;;18.03;44.08;104532.63;5125465;28;19907;-62
2022/03/19 00:42:38;;;;;;;;;;;;;;;18.02;44.24;104536.28;5125687;28;19911;-58
2022/03/19 00:45:04;;;;;;;;;;;;;;;18.01;44.08;104534.53;5125874;28;19919;-62
2022/03/19 00:47:29;;;;;;;;;;;;;;;18.02;44.21;104532.72;5124570;28;19907;-61
2022/03/19 00:49:54;;;;;;;;;;;;;;;18.02;44.23;104536.28;5125138;28;19908;-61
2022/03/19 00:52:19;;;;;;;;;;;;;;;18.01;44.21;104539.03;5105605;28;19971;-61
2022/03/19 00:54:45;;;;;;;;;;;;;;;18.00;44.13;104530.09;5103535;28;19912;-61
2022/03/19 00:57:10;;;;;;;;;;;;;;;18.00;44.18;104530.09;5105281;28;19915;-61
2022/03/19 00:59:35;;;;;;;;;;;;;;;17.98;44.13;104535.56;5105109;28;19912;-61
2022/03/19 01:02:00;;;;;;;;;;;;;;;17.98;44.05;104530.19;5121694;28;19912;-62
2022/03/19 01:04:26;;;;;;;;;;;;;;;17.97;44.07;104517.66;5125778;28;19914;-61
2022/03/19 01:06:51;;;;;;;;;;;;;;;17.97;43.91;104520.34;5125306;28;19914;-60
2022/03/19 01:09:16;;;;;;;;;;;;;;;17.97;44.06;104516.78;5124743;28;19908;-60
2022/03/19 01:11:41;;;;;;;;;;;;;;;17.96;44.08;104513.19;5125182;28;20427;-57
2022/03/19 01:14:07;;;;;;;;;;;;;;;17.96;43.93;104512.34;5124845;28;19912;-60
2022/03/19 01:16:32;;;;;;;;;;;;;;;17.95;43.80;104516.84;5125360;28;19911;-61
2022/03/19 01:18:57;;;;;;;;;;;;;;;17.95;44.04;104514.16;5125239;28;19915;-61
2022/03/19 01:21:23;;;;;;;;;;;;;;;17.94;43.86;104511.56;5125169;28;19914;-61
2022/03/19 01:23:48;;;;;;;;;;;;;;;17.94;44.09;104508.84;5125407;28;19908;-61
2022/03/19 01:26:13;;;;;;;;;;;;;;;17.93;44.01;104510.69;5124312;28;19960;-61
2022/03/19 01:28:38;;;;;;;;;;;;;;;17.93;43.94;104504.44;5123619;28;20002;-61
2022/03/19 01:31:04;;;;;;;;;;;;;;;17.92;43.96;104510.75;5125175;28;19978;-61
2022/03/19 01:33:29;;;;;;;;;;;;;;;17.92;43.84;104518.81;5125194;28;19907;-61
2022/03/19 01:35:54;;;;;;;;;;;;;;;17.92;43.89;104518.81;5124942;28;19915;-60
2022/03/19 01:38:19;;;;;;;;;;;;;;;17.90;43.68;104508.13;5124736;28;19911;-60
2022/03/19 01:40:44;;;;;;;;;;;;;;;17.90;43.76;104518.91;5123998;28;19926;-62
2022/03/19 01:43:10;;;;;;;;;;;;;;;17.90;43.77;104518.03;5124759;28;19919;-60
2022/03/19 01:45:35;;;;;;;;;;;;;;;17.88;43.71;104518.13;5117415;28;19941;-61
2022/03/19 01:48:00;;;;;;;;;;;;;;;17.89;43.80;104510.91;5104276;28;20364;-61
2022/03/19 01:50:25;;;;;;;;;;;;;;;17.87;43.66;104512.78;5120643;28;19979;-61
2022/03/19 01:52:51;;;;;;;;;;;;;;;17.87;43.87;104512.78;5124894;28;19971;-61
2022/03/19 01:55:18;;;;;;;;;;;;;;;17.87;43.85;104510.09;5124218;28;19919;-60
2022/03/19 01:57:44;;;;;;;;;;;;;;;17.87;43.66;104512.78;5124582;28;19982;-60
2022/03/19 02:00:10;;;;;;;;;;;;;;;17.86;43.65;104506.53;5124560;28;19915;-61
2022/03/19 02:02:35;;;;;;;;;;;;;;;17.85;43.65;104512.88;5124469;28;19914;-61
2022/03/19 02:05:03;;;;;;;;;;;;;;;17.84;43.73;104511.13;5123340;28;19916;-61
2022/03/19 02:07:28;;;;;;;;;;;;;;;17.84;43.75;104510.22;5123420;28;19908;-61
2022/03/19 02:09:53;;;;;;;;;;;;;;;17.84;43.66;104510.22;5123728;28;19922;-61
2022/03/19 02:12:18;;;;;;;;;;;;;;;17.83;43.69;104508.50;5122920;28;19916;-61
2022/03/19 02:14:44;;;;;;;;;;;;;;;17.83;43.74;104508.50;5124219;28;19993;-61
2022/03/19 02:17:09;;;;;;;;;;;;;;;17.82;43.56;104510.31;5124240;28;19983;-61
2022/03/19 02:19:44;;;;;;;;;;;;;;;17.81;43.80;104497.81;5124546;28;19912;-61
2022/03/19 02:22:09;;;;;;;;;;;;;;;17.81;43.71;104500.50;5124499;28;19923;-61
2022/03/19 02:27:18;;;;;;;;;;;;;;;17.80;43.55;104490.69;5123960;28;19923;-61
2022/03/19 02:29:44;;;;;;;;;;;;;;;17.79;43.64;104486.22;5124097;28;19908;-61
2022/03/19 02:32:09;;;;;;;;;;;;;;;17.78;43.40;104487.19;5124178;28;19998;-60
2022/03/19 02:34:34;;;;;;;;;;;;;;;17.78;43.64;104483.63;5124507;28;20542;-61
2022/03/19 02:37:00;;;;;;;;;;;;;;;17.77;43.63;104479.19;5124415;28;19929;-61
2022/03/19 02:39:28;;;;;;;;;;;;;;;17.77;43.64;104477.38;5126298;28;19911;-61
2022/03/19 02:41:53;;;;;;;;;;;;;;;17.77;43.57;104473.81;5127049;28;19918;-61
2022/03/19 02:44:19;;;;;;;;;;;;;;;17.76;43.61;104474.78;5128029;28;19908;-61
2022/03/19 02:46:51;;;;;;;;;;;;;;;17.75;43.61;104465.78;5128027;28;19914;-61
2022/03/19 02:49:16;;;;;;;;;;;;;;;17.74;43.46;104469.44;5126820;28;19911;-61
2022/03/19 02:51:42;;;;;;;;;;;;;;;17.72;43.41;104460.56;5128212;28;19918;-61
2022/03/19 02:54:08;;;;;;;;;;;;;;;17.72;43.59;104464.09;5128359;28;19907;-61
2022/03/19 02:56:34;;;;;;;;;;;;;;;17.71;43.52;104459.69;5127546;28;19907;-61
2022/03/19 02:59:09;;;;;;;;;;;;;;;17.71;43.53;104458.78;5127675;28;19958;-61
2022/03/19 03:01:35;;;;;;;;;;;;;;;17.70;43.56;104449.84;5128050;28;19914;-61
2022/03/19 03:04:00;;;;;;;;;;;;;;;17.70;43.29;104455.22;5116642;28;19911;-61
2022/03/19 03:06:26;;;;;;;;;;;;;;;17.70;43.54;104451.66;5107410;28;19916;-61
2022/03/19 03:08:51;;;;;;;;;;;;;;;17.66;43.45;104447.38;5107212;28;19908;-61
2022/03/19 03:11:17;;;;;;;;;;;;;;;17.68;43.30;104448.19;5115887;28;19919;-61
2022/03/19 03:13:42;;;;;;;;;;;;;;;17.68;43.50;104453.56;5127421;28;19918;-61
2022/03/19 03:16:07;;;;;;;;;;;;;;;17.67;43.44;104447.31;5127701;28;19943;-61
2022/03/19 03:18:33;;;;;;;;;;;;;;;17.66;43.44;104452.75;5127638;27;20556;-61
2022/03/19 03:20:58;;;;;;;;;;;;;;;17.67;43.39;104454.50;5126146;28;20039;-61
2022/03/19 03:23:26;;;;;;;;;;;;;;;17.66;43.40;104447.38;5127575;28;19915;-61
2022/03/19 03:25:51;;;;;;;;;;;;;;;17.64;43.31;104442.06;5126814;28;19920;-62
2022/03/19 03:28:16;;;;;;;;;;;;;;;17.64;43.34;104452.84;5126969;28;19919;-60
2022/03/19 03:30:41;;;;;;;;;;;;;;;17.64;43.37;104452.84;5127452;28;19919;-61
2022/03/19 03:33:06;;;;;;;;;;;;;;;17.63;43.38;104445.72;5127002;28;19960;-61
2022/03/19 03:35:31;;;;;;;;;;;;;;;17.62;43.44;104449.34;5127383;28;19915;-61
2022/03/19 03:37:57;;;;;;;;;;;;;;;17.63;43.33;104444.84;5127177;28;19939;-58
2022/03/19 03:40:22;;;;;;;;;;;;;;;17.61;43.38;104449.41;5125816;28;20004;-61
2022/03/19 03:42:47;;;;;;;;;;;;;;;17.61;43.20;104446.72;5127384;28;19915;-61
2022/03/19 03:45:12;;;;;;;;;;;;;;;17.59;43.26;104430.66;5109769;28;20401;-60
2022/03/19 03:47:38;;;;;;;;;;;;;;;17.59;43.19;104436.06;5127016;28;19907;-62
2022/03/19 03:50:03;;;;;;;;;;;;;;;17.58;43.14;104434.28;5124445;27;19937;-60
2022/03/19 03:52:30;;;;;;;;;;;;;;;17.58;43.24;104433.41;5106734;28;19908;-60
2022/03/19 03:54:55;;;;;;;;;;;;;;;17.57;43.15;104440.63;5106113;28;19915;-61
2022/03/19 03:57:20;;;;;;;;;;;;;;;17.57;43.22;104434.38;5106440;28;20406;-62
2022/03/19 03:59:45;;;;;;;;;;;;;;;17.56;43.18;104433.50;5104852;28;19924;-62
2022/03/19 04:02:11;;;;;;;;;;;;;;;17.56;43.36;104435.31;5106377;28;19971;-61
2022/03/19 04:04:36;;;;;;;;;;;;;;;17.55;43.12;104430.91;5105083;28;19916;-61
2022/03/19 04:07:02;;;;;;;;;;;;;;;17.55;43.17;104433.59;5104966;28;19911;-62
2022/03/19 04:09:27;;;;;;;;;;;;;;;17.54;43.24;104430.00;5118109;28;19939;-62
2022/03/19 04:11:52;;;;;;;;;;;;;;;17.54;43.20;104429.13;5126564;28;20264;-61
2022/03/19 04:14:17;;;;;;;;;;;;;;;17.53;43.07;104430.94;5126422;28;19912;-60
2022/03/19 04:16:42;;;;;;;;;;;;;;;17.53;43.20;104422.00;5126398;28;19911;-60
2022/03/19 04:19:07;;;;;;;;;;;;;;;17.52;43.14;104423.81;5126641;28;19908;-59
2022/03/19 04:21:32;;;;;;;;;;;;;;;17.52;42.98;104426.53;5126302;28;19915;-59
2022/03/19 04:23:58;;;;;;;;;;;;;;;17.50;43.05;104414.97;5126621;28;19918;-59
2022/03/19 04:26:23;;;;;;;;;;;;;;;17.51;43.27;104411.34;5122574;28;19915;-61
2022/03/19 04:28:48;;;;;;;;;;;;;;;17.49;43.13;104414.06;5106961;28;19908;-59
2022/03/19 04:31:13;;;;;;;;;;;;;;;17.49;43.10;104410.53;5126243;28;20053;-60
2022/03/19 04:33:38;;;;;;;;;;;;;;;17.49;43.35;104415.91;5126126;28;19915;-60
2022/03/19 04:39:02;;;;;;;;;;;;;;;17.47;43.52;104407.91;5112762;28;19920;-59
2022/03/19 04:41:28;;;;;;;;;;;;;;;17.47;43.44;104409.72;5125225;28;19908;-60
2022/03/19 04:43:53;;;;;;;;;;;;;;;17.47;43.47;104415.97;5122552;28;19908;-60
2022/03/19 04:46:19;;;;;;;;;;;;;;;17.46;43.55;104414.25;5122632;28;19915;-59
2022/03/19 04:48:45;;;;;;;;;;;;;;;17.45;43.54;104407.09;5123366;28;19968;-59
2022/03/19 04:51:14;;;;;;;;;;;;;;;17.45;43.84;104408.91;5126049;28;19908;-60
2022/03/19 04:53:39;;;;;;;;;;;;;;;17.44;44.02;104413.44;5125809;28;19907;-59
2022/03/19 04:56:05;;;;;;;;;;;;;;;17.44;43.72;104412.56;5125142;27;19928;-60
2022/03/19 04:58:31;;;;;;;;;;;;;;;17.43;43.90;104417.06;5125719;28;19908;-59
2022/03/19 05:00:56;;;;;;;;;;;;;;;17.43;43.96;104424.28;5106526;28;20025;-60
2022/03/19 05:03:21;;;;;;;;;;;;;;;17.42;43.88;104425.22;5124556;28;19926;-60
2022/03/19 05:05:47;;;;;;;;;;;;;;;17.42;43.93;104422.53;5125401;28;19919;-59
2022/03/19 05:08:12;;;;;;;;;;;;;;;17.40;43.79;104427.97;5125215;28;19908;-59
2022/03/19 05:13:21;;;;;;;;;;;;;;;17.39;43.79;104417.31;5125303;28;19914;-59
2022/03/19 05:15:46;;;;;;;;;;;;;;;17.38;43.85;104440.63;5125350;28;19912;-59
2022/03/19 05:18:12;;;;;;;;;;;;;;;17.37;43.88;104433.50;5125222;28;19954;-60
2022/03/19 05:20:37;;;;;;;;;;;;;;;17.37;43.78;104429.94;5125491;27;19912;-59
2022/03/19 05:23:04;;;;;;;;;;;;;;;17.36;43.66;104444.34;5125025;28;20283;-60
2022/03/19 05:25:29;;;;;;;;;;;;;;;17.34;43.83;104439.03;5124435;28;19916;-59
2022/03/19 05:27:55;;;;;;;;;;;;;;;17.34;43.94;104441.72;5124772;28;19943;-60
2022/03/19 05:30:20;;;;;;;;;;;;;;;17.34;43.69;104441.72;5124892;28;20036;-59
2022/03/19 05:32:45;;;;;;;;;;;;;;;17.33;43.88;104440.00;5125148;28;19918;-59
2022/03/19 05:35:10;;;;;;;;;;;;;;;17.33;43.68;104437.31;5125293;28;20007;-60
2022/03/19 05:37:35;;;;;;;;;;;;;;;17.32;43.96;104443.59;5124985;28;20559;-60
2022/03/19 05:40:03;;;;;;;;;;;;;;;17.32;43.92;104442.72;5122557;28;19941;-60
2022/03/19 05:42:29;;;;;;;;;;;;;;;17.30;43.75;104448.19;5125134;27;19914;-60
2022/03/19 05:44:54;;;;;;;;;;;;;;;17.30;43.71;104448.19;5124504;28;19951;-59
2022/03/19 05:47:19;;;;;;;;;;;;;;;17.30;43.70;104450.03;5124579;28;19918;-59
2022/03/19 05:49:44;;;;;;;;;;;;;;;17.29;43.80;104443.78;5124694;28;19908;-60
2022/03/19 05:52:09;;;;;;;;;;;;;;;17.28;43.80;104455.44;5125068;28;19907;-59
2022/03/19 05:54:34;;;;;;;;;;;;;;;17.27;43.80;104453.72;5124306;28;20260;-58
2022/03/19 05:57:00;;;;;;;;;;;;;;;17.28;43.84;104457.25;5124833;28;19907;-59
2022/03/19 05:59:25;;;;;;;;;;;;;;;17.27;43.59;104455.53;5124229;28;19912;-59
2022/03/19 06:01:50;;;;;;;;;;;;;;;17.26;43.58;104457.34;5124780;28;19915;-60
2022/03/19 06:04:15;;;;;;;;;;;;;;;17.27;43.64;104458.22;5122998;28;19918;-59
2022/03/19 06:06:41;;;;;;;;;;;;;;;17.25;43.53;104455.63;5113577;28;20010;-58
2022/03/19 06:09:06;;;;;;;;;;;;;;;17.25;43.63;104463.69;5112705;28;19950;-59
2022/03/19 06:11:31;;;;;;;;;;;;;;;17.25;43.65;104450.22;5123647;28;19911;-59
2022/03/19 06:13:56;;;;;;;;;;;;;;;17.24;43.53;104452.03;5124248;28;19999;-59
2022/03/19 06:16:21;;;;;;;;;;;;;;;17.23;43.59;104450.28;5124319;28;19951;-59
2022/03/19 06:18:50;;;;;;;;;;;;;;;17.23;43.52;104460.16;5124336;28;20287;-59
2022/03/19 06:21:15;;;;;;;;;;;;;;;17.22;43.53;104453.94;5124507;28;19916;-60
2022/03/19 06:23:40;;;;;;;;;;;;;;;17.23;43.50;104454.78;5124464;28;20313;-59
2022/03/19 06:26:05;;;;;;;;;;;;;;;17.22;43.48;104450.38;5123865;28;19915;-59
2022/03/19 06:28:30;;;;;;;;;;;;;;;17.21;43.47;104449.50;5124075;28;19908;-59
2022/03/19 06:30:55;;;;;;;;;;;;;;;17.21;43.62;104454.88;5124218;28;19998;-59
2022/03/19 06:33:21;;;;;;;;;;;;;;;17.21;43.30;104452.19;5124349;28;20426;-60
2022/03/19 06:38:30;;;;;;;;;;;;;;;17.21;43.36;104449.50;5123748;28;19918;-60
2022/03/19 06:40:55;;;;;;;;;;;;;;;17.20;43.37;104450.44;5123664;28;19920;-59
2022/03/19 06:43:21;;;;;;;;;;;;;;;17.20;43.45;104450.44;5123529;28;19915;-58
2022/03/19 06:45:46;;;;;;;;;;;;;;;17.20;43.51;104441.47;5124023;28;19923;-58
2022/03/19 06:48:11;;;;;;;;;;;;;;;17.19;43.38;104453.19;5124173;28;19907;-59
2022/03/19 06:50:36;;;;;;;;;;;;;;;17.18;43.45;104446.06;5124003;28;19915;-59
2022/03/19 06:53:02;;;;;;;;;;;;;;;17.18;43.43;104452.31;5124142;28;19912;-59
2022/03/19 06:55:27;;;;;;;;;;;;;;;17.17;43.44;104447.91;5123609;28;19907;-60
2022/03/19 06:57:53;;;;;;;;;;;;;;;17.17;43.42;104450.59;5122663;28;19914;-60
2022/03/19 07:00:18;;;;;;;;;;;;;;;17.18;43.42;104456.84;5123850;28;19915;-59
2022/03/19 07:02:47;;;;;;;;;;;;;;;17.16;43.53;104448.84;5124137;28;19908;-59
2022/03/19 07:05:12;;;;;;;;;;;;;;;17.17;43.37;104452.41;5124225;28;19915;-59
2022/03/19 07:07:38;;;;;;;;;;;;;;;17.16;43.61;104453.31;5123996;28;20309;-60
2022/03/19 07:10:03;;;;;;;;;;;;;;;17.17;43.43;104449.72;5122527;28;20043;-59
2022/03/19 07:12:28;;;;;;;;;;;;;;;17.16;43.55;104453.31;5124123;28;19908;-60
2022/03/19 07:14:53;;;;;;;;;;;;;;;17.17;43.43;104452.41;5123573;28;19914;-59
2022/03/19 07:17:18;;;;;;;;;;;;;;;17.17;43.56;104452.41;5123447;28;19912;-59
2022/03/19 07:19:44;;;;;;;;;;;;;;;17.18;43.51;104451.44;5123799;28;19946;-59
2022/03/19 07:22:09;;;;;;;;;;;;;;;17.17;43.65;104450.59;5123684;28;20488;-59
2022/03/19 07:24:36;;;;;;;;;;;;;;;17.17;43.69;104449.72;5125845;28;20166;-60
2022/03/19 07:27:02;;;;;;;;;;;;;;;17.15;43.57;104449.75;5127353;28;19912;-59
2022/03/19 07:29:27;;;;;;;;;;;;;;;17.15;43.64;104448.91;5126964;28;19911;-59
2022/03/19 07:31:52;;;;;;;;;;;;;;;17.13;43.85;104448.97;5127563;28;20460;-59
2022/03/19 07:34:17;;;;;;;;;;;;;;;17.12;43.71;104452.63;5127299;28;20464;-59
2022/03/19 07:36:44;;;;;;;;;;;;;;;17.12;43.86;104449.03;5127506;28;19907;-59
2022/03/19 07:39:09;;;;;;;;;;;;;;;17.12;43.83;104447.25;5126818;28;20011;-59
2022/03/19 07:41:46;;;;;;;;;;;;;;;17.13;43.73;104450.81;5125985;27;19927;-59
2022/03/19 07:44:11;;;;;;;;;;;;;;;17.12;43.69;104449.03;5126787;28;20010;-59
2022/03/19 07:46:36;;;;;;;;;;;;;;;17.12;43.82;104449.03;5126972;28;19979;-59
2022/03/19 07:49:02;;;;;;;;;;;;;;;17.10;43.75;104446.41;5126826;28;19923;-59
2022/03/19 07:51:28;;;;;;;;;;;;;;;17.11;43.67;104450.84;5127046;28;20280;-60
2022/03/19 07:53:53;;;;;;;;;;;;;;;17.11;43.86;104439.22;5127168;28;19943;-59
2022/03/19 07:56:18;;;;;;;;;;;;;;;17.11;43.61;104439.22;5126348;28;19914;-58
2022/03/19 07:58:49;;;;;;;;;;;;;;;17.11;43.68;104444.59;5126198;28;19911;-59
2022/03/19 08:01:15;;;;;;;;;;;;;;;17.10;43.89;104441.03;5126763;28;19915;-59
2022/03/19 08:03:40;;;;;;;;;;;;;;;17.10;43.73;104442.88;5127127;28;19912;-58
2022/03/19 08:06:05;;;;;;;;;;;;;;;17.10;43.76;104443.72;5126653;28;20107;-59
2022/03/19 08:08:30;;;;;;;;;;;;;;;17.11;43.80;104434.72;5126864;28;19950;-60
2022/03/19 08:10:55;;;;;;;;;;;;;;;17.11;43.82;104433.84;5126244;28;19911;-59
2022/03/19 08:13:20;;;;;;;;;;;;;;;17.11;44.02;104440.09;5125673;28;19911;-59
2022/03/19 08:15:46;;;;;;;;;;;;;;;17.12;44.18;104444.56;5126565;28;20002;-59
2022/03/19 08:18:12;;;;;;;;;;;;;;;17.11;44.27;104444.59;5126583;28;19907;-60
2022/03/19 08:20:37;;;;;;;;;;;;;;;17.11;44.29;104445.47;5126399;28;19977;-60
2022/03/19 08:23:02;;;;;;;;;;;;;;;17.11;44.38;104437.41;5124762;28;19920;-59
2022/03/19 08:25:27;;;;;;;;;;;;;;;17.11;44.42;104441.91;5125613;28;20014;-60
2022/03/19 08:27:54;;;;;;;;;;;;;;;17.11;44.43;104445.47;5126341;28;20066;-60
2022/03/19 08:30:19;;;;;;;;;;;;;;;17.11;44.63;104442.78;5126212;28;19908;-59
2022/03/19 08:32:44;;;;;;;;;;;;;;;17.12;44.59;104439.19;5126159;28;19915;-60
2022/03/19 08:35:09;;;;;;;;;;;;;;;17.13;44.55;104440.03;5125395;28;19967;-60
2022/03/19 08:37:36;;;;;;;;;;;;;;;17.13;44.66;104438.22;5126229;28;19912;-60
2022/03/19 08:40:16;;;;;;;;;;;;;;;17.14;44.58;104447.16;5125513;28;19907;-60
2022/03/19 08:42:52;;;;;;;;;;;;;;;17.14;44.70;104434.59;5126313;28;19974;-60
2022/03/19 08:45:21;;;;;;;;;;;;;;;17.16;44.61;104439.88;5125522;28;19923;-60
2022/03/19 08:47:46;;;;;;;;;;;;;;;17.16;44.49;104438.09;5125920;28;19911;-60
2022/03/19 08:50:11;;;;;;;;;;;;;;;17.17;44.71;104431.75;5126030;28;19914;-60
2022/03/19 08:52:36;;;;;;;;;;;;;;;17.18;44.61;104435.31;5126191;28;20275;-60
2022/03/19 08:55:02;;;;;;;;;;;;;;;17.18;44.55;104436.19;5124640;28;19912;-61
2022/03/19 08:57:27;;;;;;;;;;;;;;;17.19;44.67;104432.53;5125651;28;20692;-60
2022/03/19 08:59:53;;;;;;;;;;;;;;;17.20;44.50;104431.63;5122123;28;19968;-60
2022/03/19 09:02:18;;;;;;;;;;;;;;;17.19;44.48;104440.63;5109525;28;20368;-60
2022/03/19 09:04:43;;;;;;;;;;;;;;;17.21;44.49;104432.50;5125494;28;19977;-60
2022/03/19 09:07:09;;;;;;;;;;;;;;;17.20;44.46;104437.00;5125759;28;19908;-60
2022/03/19 09:09:35;;;;;;;;;;;;;;;17.20;44.48;104422.66;5124703;28;20624;-60
2022/03/19 09:12:00;;;;;;;;;;;;;;;17.19;44.51;104437.91;5125537;28;19943;-59
2022/03/19 09:14:27;;;;;;;;;;;;;;;17.19;44.58;104421.78;5124959;28;19915;-59
2022/03/19 09:16:52;;;;;;;;;;;;;;;17.20;44.44;104423.56;5125468;28;19908;-60
2022/03/19 09:19:17;;;;;;;;;;;;;;;17.21;44.43;104419.03;5125277;28;20380;-60
2022/03/19 09:21:42;;;;;;;;;;;;;;;17.20;44.56;104420.88;5125135;28;19954;-60
2022/03/19 09:24:07;;;;;;;;;;;;;;;17.20;44.55;104425.34;5125489;28;19918;-60
2022/03/19 09:26:33;;;;;;;;;;;;;;;17.20;44.70;104417.28;5124407;28;19915;-60
2022/03/19 09:28:58;;;;;;;;;;;;;;;17.19;44.70;104421.78;5124430;28;19933;-60
2022/03/19 09:31:23;;;;;;;;;;;;;;;17.20;44.61;104423.56;5125198;28;19960;-60
2022/03/19 09:33:48;;;;;;;;;;;;;;;17.20;44.56;104419.97;5125187;28;19907;-60
2022/03/19 09:36:13;;;;;;;;;;;;;;;17.19;44.60;104411.03;5125175;28;19908;-59
2022/03/19 09:38:42;;;;;;;;;;;;;;;17.19;44.70;104413.72;5124913;28;19912;-60
2022/03/19 09:41:07;;;;;;;;;;;;;;;17.18;44.68;104411.97;5124711;28;19930;-60
2022/03/19 09:43:33;;;;;;;;;;;;;;;17.18;44.63;104409.28;5124929;28;20501;-59
2022/03/19 09:45:58;;;;;;;;;;;;;;;17.18;44.68;104398.53;5124642;28;19967;-59
2022/03/19 09:48:23;;;;;;;;;;;;;;;17.18;44.86;104403.91;5124739;28;20040;-59
2022/03/19 09:50:49;;;;;;;;;;;;;;;17.18;44.94;104395.84;5124341;28;20500;-60
2022/03/19 09:53:15;;;;;;;;;;;;;;;17.18;44.77;104392.28;5124930;28;19915;-59
2022/03/19 09:55:41;;;;;;;;;;;;;;;17.18;44.82;104385.09;5122905;28;19911;-59
2022/03/19 09:58:06;;;;;;;;;;;;;;;17.19;44.87;104385.97;5106388;28;19911;-59
2022/03/19 10:00:31;;;;;;;;;;;;;;;17.18;44.90;104379.72;5124110;28;19907;-59
2022/03/19 10:03:02;;;;;;;;;;;;;;;17.19;44.70;104375.22;5124756;28;19907;-59
2022/03/19 10:11:01;;;;;;;;;;;;;;;17.17;44.98;104374.44;5123622;28;19922;-59
2022/03/19 10:13:26;;;;;;;;;;;;;;;17.16;45.02;104357.41;5124065;28;19916;-58
2022/03/19 10:15:51;;;;;;;;;;;;;;;17.16;44.98;104357.41;5124369;28;19908;-59
2022/03/19 10:18:17;;;;;;;;;;;;;;;17.16;44.90;104354.72;5124645;28;19939;-59
2022/03/19 10:20:42;;;;;;;;;;;;;;;17.16;44.83;104353.84;5124280;28;19922;-59
2022/03/19 10:23:07;;;;;;;;;;;;;;;17.16;44.89;104345.75;5124518;28;20420;-60
2022/03/19 10:25:33;;;;;;;;;;;;;;;17.16;44.89;104335.00;5123709;28;19911;-59
2022/03/19 10:28:02;;;;;;;;;;;;;;;17.15;45.00;104336.84;5124328;28;20352;-60
2022/03/19 10:30:34;;;;;;;;;;;;;;;17.15;44.96;104328.75;5123804;28;19908;-58
2022/03/19 10:32:59;;;;;;;;;;;;;;;17.16;44.78;104326.94;5124434;28;19918;-59
2022/03/19 10:35:25;;;;;;;;;;;;;;;17.16;44.79;104337.69;5122998;28;19911;-60
2022/03/19 10:37:50;;;;;;;;;;;;;;;17.17;44.91;104331.41;5124228;28;20340;-59
2022/03/19 10:40:15;;;;;;;;;;;;;;;17.17;44.84;104328.72;5123435;28;19994;-60
2022/03/19 10:42:41;;;;;;;;;;;;;;;17.19;44.88;104318.75;5123957;28;19912;-59
2022/03/19 10:45:07;;;;;;;;;;;;;;;17.18;44.90;104322.38;5123666;28;20420;-59
2022/03/19 10:47:45;;;;;;;;;;;;;;;17.19;44.91;104314.22;5124163;28;19908;-59
2022/03/19 10:50:11;;;;;;;;;;;;;;;17.20;44.83;104316.00;5124203;28;20010;-59
2022/03/19 10:52:36;;;;;;;;;;;;;;;17.22;45.02;104311.41;5124378;28;20440;-60
2022/03/19 10:55:04;;;;;;;;;;;;;;;17.23;44.89;104294.31;5123706;28;19934;-59
2022/03/19 10:57:29;;;;;;;;;;;;;;;17.26;44.79;104303.19;5122775;28;19907;-59
2022/03/19 10:59:54;;;;;;;;;;;;;;;17.26;44.70;104296.00;5126849;28;19998;-60
2022/03/19 11:02:19;;;;;;;;;;;;;;;17.29;44.83;104294.94;5128203;28;19963;-59
2022/03/19 11:04:45;;;;;;;;;;;;;;;17.31;44.72;104296.63;5126229;28;19939;-60
2022/03/19 11:07:10;;;;;;;;;;;;;;;17.32;44.64;104287.59;5128109;28;19952;-59
2022/03/19 11:09:35;;;;;;;;;;;;;;;17.33;44.60;104275.91;5125529;28;20249;-59
2022/03/19 11:12:01;;;;;;;;;;;;;;;17.35;44.66;104274.00;5126503;28;20023;-59
2022/03/19 11:14:27;;;;;;;;;;;;;;;17.37;44.47;104280.16;5127496;28;19916;-60
2022/03/19 11:17:24;;;;;;;;;;;;;;;17.38;44.43;104271.19;5127462;28;19974;-60
2022/03/19 11:19:56;;;;;;;;;;;;;;;17.42;44.46;104274.59;5126435;28;19915;-60
2022/03/19 11:22:22;;;;;;;;;;;;;;;17.44;44.42;104275.38;5127468;28;19916;-60
2022/03/19 11:24:47;;;;;;;;;;;;;;;17.45;44.39;104259.13;5127135;28;20010;-60
2022/03/19 11:27:12;;;;;;;;;;;;;;;17.47;44.15;104257.25;5126017;28;19963;-60
2022/03/19 11:29:37;;;;;;;;;;;;;;;17.48;44.35;104264.38;5127203;27;19989;-60
2022/03/19 11:32:05;;;;;;;;;;;;;;;17.49;44.24;104255.34;5127616;28;19908;-60
2022/03/19 11:34:44;;;;;;;;;;;;;;;17.51;44.27;104249.91;5127508;28;19975;-60
2022/03/19 11:37:09;;;;;;;;;;;;;;;17.53;44.35;104241.75;5127321;28;20307;-60
2022/03/19 11:39:34;;;;;;;;;;;;;;;17.53;44.41;104237.22;5126248;28;19911;-59
2022/03/19 11:41:59;;;;;;;;;;;;;;;17.54;44.45;104232.72;5127476;28;19933;-60
2022/03/19 11:44:25;;;;;;;;;;;;;;;17.54;44.38;104225.50;5126852;28;20001;-60
2022/03/19 11:47:00;;;;;;;;;;;;;;;17.56;44.44;104222.75;5126766;28;19911;-60
2022/03/19 11:49:44;;;;;;;;;;;;;;;17.57;44.66;104213.75;5127154;28;19908;-60
2022/03/19 11:52:09;;;;;;;;;;;;;;;17.57;44.56;104213.75;5127044;28;19908;-60
2022/03/19 11:54:54;;;;;;;;;;;;;;;17.59;44.46;104214.53;5125259;28;20303;-60
2022/03/19 11:57:20;;;;;;;;;;;;;;;17.59;44.69;104209.16;5126734;28;19907;-60
2022/03/19 11:59:46;;;;;;;;;;;;;;;17.59;44.64;104193.03;5126613;28;19961;-60
2022/03/19 12:02:12;;;;;;;;;;;;;;;17.60;44.72;104187.53;5126897;28;20322;-60
2022/03/19 12:04:40;;;;;;;;;;;;;;;17.61;44.65;104181.22;5126806;28;19912;-60
2022/03/19 12:07:05;;;;;;;;;;;;;;;17.61;44.84;104185.72;5126794;28;19914;-60
2022/03/19 12:09:39;;;;;;;;;;;;;;;17.62;44.84;104182.06;5125349;28;19951;-60
2022/03/19 12:12:05;;;;;;;;;;;;;;;17.62;44.83;104177.56;5126758;28;19919;-60
2022/03/19 12:14:30;;;;;;;;;;;;;;;17.62;44.69;104169.47;5126446;28;20287;-60
2022/03/19 12:17:10;;;;;;;;;;;;;;;17.63;44.77;104160.47;5126153;28;19950;-60
2022/03/19 12:19:54;;;;;;;;;;;;;;;17.64;44.78;104158.66;5125087;28;19914;-60
2022/03/19 12:22:29;;;;;;;;;;;;;;;17.65;44.62;104149.63;5126279;28;20452;-60
2022/03/19 12:25:02;;;;;;;;;;;;;;;17.65;44.70;104147.81;5126171;28;19919;-60
2022/03/19 12:27:27;;;;;;;;;;;;;;;17.66;44.75;104141.47;5125999;28;20002;-60
2022/03/19 12:29:52;;;;;;;;;;;;;;;17.67;44.76;104136.94;5125716;28;19908;-60
2022/03/19 12:32:17;;;;;;;;;;;;;;;17.68;44.73;104136.03;5126301;28;19908;-60
2022/03/19 12:34:42;;;;;;;;;;;;;;;17.68;44.82;104134.19;5124874;28;19912;-60
2022/03/19 12:37:07;;;;;;;;;;;;;;;17.70;44.89;104126.03;5126258;28;19960;-60
2022/03/19 12:39:33;;;;;;;;;;;;;;;17.70;44.87;104113.44;5125046;28;19915;-59
2022/03/19 12:41:58;;;;;;;;;;;;;;;17.71;44.93;104117.00;5124766;28;19943;-60
2022/03/19 12:44:24;;;;;;;;;;;;;;;17.72;44.79;104108.84;5125599;28;20368;-60
2022/03/19 12:46:53;;;;;;;;;;;;;;;17.72;44.91;104099.91;5125775;28;20007;-60